sensor_id;sensor_type;location;lat;lon;timestamp;pressure;altitude;pressure_sealevel;temperature;humidity
20062;BME280;10191;42.710;23.310;2022-08-03T00:01:41;95006.84;;;27.76;30.23
20062;BME280;10191;42.710;23.310;2022-08-03T00:04:07;95012.53;;;27.71;30.30
20062;BME280;10191;42.710;23.310;2022-08-03T00:06:34;95006.03;;;27.65;30.56
20062;BME280;10191;42.710;23.310;2022-08-03T00:08:59;95003.13;;;27.54;30.47
20062;BME280;10191;42.710;23.310;2022-08-03T00:11:25;94997.88;;;27.47;30.52
20062;BME280;10191;42.710;23.310;2022-08-03T00:13:51;95003.13;;;27.54;30.75
20062;BME280;10191;42.710;23.310;2022-08-03T00:16:17;95001.06;;;27.54;30.85
20062;BME280;10191;42.710;23.310;2022-08-03T00:18:43;94994.28;;;27.52;30.50
20062;BME280;10191;42.710;23.310;2022-08-03T00:21:09;95002.31;;;27.48;30.64
20062;BME280;10191;42.710;23.310;2022-08-03T00:23:34;94997.84;;;27.41;30.71
20062;BME280;10191;42.710;23.310;2022-08-03T00:26:00;95004.81;;;27.35;30.66
20062;BME280;10191;42.710;23.310;2022-08-03T00:28:26;94997.22;;;27.26;30.98
20062;BME280;10191;42.710;23.310;2022-08-03T00:30:52;95003.19;;;27.28;30.87
20062;BME280;10191;42.710;23.310;2022-08-03T00:33:17;95006.03;;;27.28;30.99
20062;BME280;10191;42.710;23.310;2022-08-03T00:35:43;95003.72;;;27.27;30.86
20062;BME280;10191;42.710;23.310;2022-08-03T00:38:09;95006.03;;;27.28;31.09
20062;BME280;10191;42.710;23.310;2022-08-03T00:40:34;94999.00;;;27.24;31.10
20062;BME280;10191;42.710;23.310;2022-08-03T00:43:02;94992.94;;;27.11;30.83
20062;BME280;10191;42.710;23.310;2022-08-03T00:45:33;95005.94;;;27.12;30.96
20062;BME280;10191;42.710;23.310;2022-08-03T00:47:59;95000.50;;;27.14;31.16
20062;BME280;10191;42.710;23.310;2022-08-03T00:50:28;95002.03;;;27.09;31.12
20062;BME280;10191;42.710;23.310;2022-08-03T00:52:56;95006.13;;;27.02;31.44
20062;BME280;10191;42.710;23.310;2022-08-03T00:55:23;95001.63;;;26.90;31.20
20062;BME280;10191;42.710;23.310;2022-08-03T00:57:49;94992.44;;;26.75;31.48
20062;BME280;10191;42.710;23.310;2022-08-03T01:00:17;95004.09;;;26.77;31.39
20062;BME280;10191;42.710;23.310;2022-08-03T01:02:43;94997.34;;;26.75;31.53
20062;BME280;10191;42.710;23.310;2022-08-03T01:05:09;95002.25;;;26.74;31.56
20062;BME280;10191;42.710;23.310;2022-08-03T01:16:17;94972.88;;;26.63;31.77
20062;BME280;10191;42.710;23.310;2022-08-03T01:18:51;94975.22;;;26.64;31.60
20062;BME280;10191;42.710;23.310;2022-08-03T01:21:52;94993.66;;;26.69;31.77
20062;BME280;10191;42.710;23.310;2022-08-03T01:24:40;94984.72;;;26.56;31.70
20062;BME280;10191;42.710;23.310;2022-08-03T01:27:14;94984.34;;;26.43;31.72
20062;BME280;10191;42.710;23.310;2022-08-03T01:29:55;94983.22;;;26.35;32.04
20062;BME280;10191;42.710;23.310;2022-08-03T01:35:01;94985.59;;;26.10;31.95
20062;BME280;10191;42.710;23.310;2022-08-03T01:37:38;94990.59;;;26.01;32.15
20062;BME280;10191;42.710;23.310;2022-08-03T01:40:05;94985.34;;;25.94;32.07
20062;BME280;10191;42.710;23.310;2022-08-03T01:42:32;94983.50;;;25.91;32.16
20062;BME280;10191;42.710;23.310;2022-08-03T01:44:59;94995.69;;;25.91;32.52
20062;BME280;10191;42.710;23.310;2022-08-03T01:47:27;94986.78;;;25.84;32.29
20062;BME280;10191;42.710;23.310;2022-08-03T01:49:55;94996.41;;;25.86;32.33
20062;BME280;10191;42.710;23.310;2022-08-03T01:52:22;94982.53;;;25.74;32.28
20062;BME280;10191;42.710;23.310;2022-08-03T01:54:50;94996.06;;;25.79;32.44
20062;BME280;10191;42.710;23.310;2022-08-03T01:57:18;94994.19;;;25.76;32.32
20062;BME280;10191;42.710;23.310;2022-08-03T01:59:46;94990.56;;;25.75;32.58
20062;BME280;10191;42.710;23.310;2022-08-03T02:02:14;94991.34;;;25.76;32.49
20062;BME280;10191;42.710;23.310;2022-08-03T02:04:41;94992.19;;;25.82;32.70
20062;BME280;10191;42.710;23.310;2022-08-03T02:07:09;94994.06;;;25.85;32.52
20062;BME280;10191;42.710;23.310;2022-08-03T02:09:37;94989.34;;;25.82;32.63
20062;BME280;10191;42.710;23.310;2022-08-03T02:12:07;94997.97;;;25.87;32.69
20062;BME280;10191;42.710;23.310;2022-08-03T02:14:33;94996.69;;;25.88;32.56
20062;BME280;10191;42.710;23.310;2022-08-03T02:16:59;95000.31;;;25.89;32.67
20062;BME280;10191;42.710;23.310;2022-08-03T02:19:26;94992.47;;;25.84;32.62
20062;BME280;10191;42.710;23.310;2022-08-03T02:21:53;94979.97;;;25.76;32.79
20062;BME280;10191;42.710;23.310;2022-08-03T02:24:18;94984.03;;;25.69;32.89
20062;BME280;10191;42.710;23.310;2022-08-03T02:26:44;94988.66;;;25.67;32.89
20062;BME280;10191;42.710;23.310;2022-08-03T02:29:14;94981.13;;;25.64;32.92
20062;BME280;10191;42.710;23.310;2022-08-03T02:31:42;94983.88;;;25.58;33.14
20062;BME280;10191;42.710;23.310;2022-08-03T02:34:11;94984.91;;;25.55;33.11
20062;BME280;10191;42.710;23.310;2022-08-03T02:36:38;94994.41;;;25.52;33.25
20062;BME280;10191;42.710;23.310;2022-08-03T02:39:08;94986.44;;;25.56;33.17
20062;BME280;10191;42.710;23.310;2022-08-03T02:41:37;94984.53;;;25.68;33.13
20062;BME280;10191;42.710;23.310;2022-08-03T02:44:07;94979.19;;;25.75;33.06
20062;BME280;10191;42.710;23.310;2022-08-03T02:46:37;94981.84;;;25.79;33.06
20062;BME280;10191;42.710;23.310;2022-08-03T02:49:03;94991.50;;;25.87;33.19
20062;BME280;10191;42.710;23.310;2022-08-03T02:51:32;94991.97;;;25.85;32.99
20062;BME280;10191;42.710;23.310;2022-08-03T02:54:01;94992.72;;;25.80;33.03
20062;BME280;10191;42.710;23.310;2022-08-03T02:56:27;94997.84;;;25.76;33.03
20062;BME280;10191;42.710;23.310;2022-08-03T02:58:55;94991.13;;;25.79;33.07
20062;BME280;10191;42.710;23.310;2022-08-03T03:01:22;94993.41;;;25.75;33.23
20062;BME280;10191;42.710;23.310;2022-08-03T03:03:50;94992.34;;;25.73;33.10
20062;BME280;10191;42.710;23.310;2022-08-03T03:06:17;94997.13;;;25.61;33.02
20062;BME280;10191;42.710;23.310;2022-08-03T03:08:44;95011.19;;;25.50;33.18
20062;BME280;10191;42.710;23.310;2022-08-03T03:11:12;95004.16;;;25.45;33.16
20062;BME280;10191;42.710;23.310;2022-08-03T03:13:38;95006.41;;;25.41;33.15
20062;BME280;10191;42.710;23.310;2022-08-03T03:16:07;95007.31;;;25.33;33.26
20062;BME280;10191;42.710;23.310;2022-08-03T03:18:33;95009.50;;;25.23;33.42
20062;BME280;10191;42.710;23.310;2022-08-03T03:21:02;95013.25;;;25.15;33.36
20062;BME280;10191;42.710;23.310;2022-08-03T03:23:29;95008.38;;;25.01;33.51
20062;BME280;10191;42.710;23.310;2022-08-03T03:25:55;95021.63;;;24.89;33.48
20062;BME280;10191;42.710;23.310;2022-08-03T03:28:23;95016.06;;;24.80;33.56
20062;BME280;10191;42.710;23.310;2022-08-03T03:30:48;95015.56;;;24.67;33.75
20062;BME280;10191;42.710;23.310;2022-08-03T03:33:14;95010.38;;;24.51;33.64
20062;BME280;10191;42.710;23.310;2022-08-03T03:35:41;95026.41;;;24.54;33.94
20062;BME280;10191;42.710;23.310;2022-08-03T03:38:08;95034.34;;;24.50;33.81
20062;BME280;10191;42.710;23.310;2022-08-03T03:40:34;95021.75;;;24.51;33.91
20062;BME280;10191;42.710;23.310;2022-08-03T03:43:00;95027.31;;;24.60;33.83
20062;BME280;10191;42.710;23.310;2022-08-03T03:45:26;95028.00;;;24.69;33.87
20062;BME280;10191;42.710;23.310;2022-08-03T03:47:54;95023.03;;;24.79;34.11
20062;BME280;10191;42.710;23.310;2022-08-03T03:50:21;95033.50;;;24.88;34.04
20062;BME280;10191;42.710;23.310;2022-08-03T03:52:46;95037.06;;;25.03;34.02
20062;BME280;10191;42.710;23.310;2022-08-03T03:55:16;95031.78;;;25.10;33.94
20062;BME280;10191;42.710;23.310;2022-08-03T03:57:42;95032.25;;;25.23;34.07
20062;BME280;10191;42.710;23.310;2022-08-03T04:00:09;95038.84;;;25.35;34.14
20062;BME280;10191;42.710;23.310;2022-08-03T04:02:34;95036.72;;;25.44;34.11
20062;BME280;10191;42.710;23.310;2022-08-03T04:05:00;95026.13;;;25.65;34.09
20062;BME280;10191;42.710;23.310;2022-08-03T04:08:02;95011.41;;;25.87;34.20
20062;BME280;10191;42.710;23.310;2022-08-03T04:11:20;95030.91;;;26.40;34.36
20062;BME280;10191;42.710;23.310;2022-08-03T04:14:08;95034.72;;;26.82;34.31
20062;BME280;10191;42.710;23.310;2022-08-03T04:16:37;95033.94;;;27.13;34.50
20062;BME280;10191;42.710;23.310;2022-08-03T04:19:11;95042.00;;;27.51;34.32
20062;BME280;10191;42.710;23.310;2022-08-03T04:21:41;95039.81;;;27.77;34.17
20062;BME280;10191;42.710;23.310;2022-08-03T04:24:08;95038.94;;;28.08;33.88
20062;BME280;10191;42.710;23.310;2022-08-03T04:26:37;95042.16;;;28.38;34.03
20062;BME280;10191;42.710;23.310;2022-08-03T04:29:05;95043.78;;;28.61;33.51
20062;BME280;10191;42.710;23.310;2022-08-03T04:31:31;95034.72;;;28.85;33.62
20062;BME280;10191;42.710;23.310;2022-08-03T04:33:57;95033.19;;;29.00;33.32
20062;BME280;10191;42.710;23.310;2022-08-03T04:36:25;95040.25;;;29.16;33.42
20062;BME280;10191;42.710;23.310;2022-08-03T04:41:22;95050.88;;;29.43;32.89
20062;BME280;10191;42.710;23.310;2022-08-03T04:43:50;95057.09;;;29.58;33.16
20062;BME280;10191;42.710;23.310;2022-08-03T04:46:18;95051.63;;;29.60;32.87
20062;BME280;10191;42.710;23.310;2022-08-03T04:48:46;95051.63;;;29.60;32.67
20062;BME280;10191;42.710;23.310;2022-08-03T04:51:13;95048.53;;;29.58;32.39
20062;BME280;10191;42.710;23.310;2022-08-03T04:53:39;95049.03;;;29.57;32.58
20062;BME280;10191;42.710;23.310;2022-08-03T04:56:05;95053.47;;;29.58;32.68
20062;BME280;10191;42.710;23.310;2022-08-03T04:58:31;95066.47;;;29.64;32.43
20062;BME280;10191;42.710;23.310;2022-08-03T05:00:58;95055.53;;;29.57;32.33
20062;BME280;10191;42.710;23.310;2022-08-03T05:03:23;95063.84;;;29.66;32.36
20062;BME280;10191;42.710;23.310;2022-08-03T05:05:50;95064.91;;;29.74;32.54
20062;BME280;10191;42.710;23.310;2022-08-03T05:08:15;95066.47;;;29.75;32.28
20062;BME280;10191;42.710;23.310;2022-08-03T05:10:40;95069.84;;;29.74;32.16
20062;BME280;10191;42.710;23.310;2022-08-03T05:13:06;95065.41;;;29.67;32.31
20062;BME280;10191;42.710;23.310;2022-08-03T05:15:36;95069.03;;;29.68;32.29
20062;BME280;10191;42.710;23.310;2022-08-03T05:18:02;95070.88;;;29.71;32.07
20062;BME280;10191;42.710;23.310;2022-08-03T05:20:27;95081.31;;;29.79;32.07
20062;BME280;10191;42.710;23.310;2022-08-03T05:22:52;95081.00;;;29.94;31.98
20062;BME280;10191;42.710;23.310;2022-08-03T05:25:18;95086.66;;;30.11;32.21
20062;BME280;10191;42.710;23.310;2022-08-03T05:27:44;95086.34;;;30.25;32.09
20062;BME280;10191;42.710;23.310;2022-08-03T05:30:09;95086.09;;;30.23;32.13
20062;BME280;10191;42.710;23.310;2022-08-03T05:32:35;95083.78;;;30.33;32.13
20062;BME280;10191;42.710;23.310;2022-08-03T05:35:01;95091.03;;;30.28;32.21
20062;BME280;10191;42.710;23.310;2022-08-03T05:37:26;95098.13;;;30.11;32.24
20062;BME280;10191;42.710;23.310;2022-08-03T05:39:52;95098.97;;;29.78;32.40
20062;BME280;10191;42.710;23.310;2022-08-03T05:42:17;95092.75;;;29.41;32.46
20062;BME280;10191;42.710;23.310;2022-08-03T05:44:43;95084.94;;;28.97;32.37
20062;BME280;10191;42.710;23.310;2022-08-03T05:47:08;95108.31;;;28.90;32.57
20062;BME280;10191;42.710;23.310;2022-08-03T05:49:34;95107.75;;;28.75;32.69
20062;BME280;10191;42.710;23.310;2022-08-03T05:51:59;95088.69;;;28.55;32.62
20062;BME280;10191;42.710;23.310;2022-08-03T05:54:25;95105.81;;;28.49;32.68
20062;BME280;10191;42.710;23.310;2022-08-03T05:56:50;95108.09;;;28.34;32.85
20062;BME280;10191;42.710;23.310;2022-08-03T05:59:16;95102.06;;;28.21;32.71
20062;BME280;10191;42.710;23.310;2022-08-03T06:01:41;95103.13;;;28.18;32.90
20062;BME280;10191;42.710;23.310;2022-08-03T06:04:07;95093.28;;;28.25;32.92
20062;BME280;10191;42.710;23.310;2022-08-03T06:06:32;95101.59;;;28.28;32.97
20062;BME280;10191;42.710;23.310;2022-08-03T06:08:58;95107.84;;;28.38;33.29
20062;BME280;10191;42.710;23.310;2022-08-03T06:11:24;95112.81;;;28.48;33.13
20062;BME280;10191;42.710;23.310;2022-08-03T06:13:49;95109.53;;;28.61;32.84
20062;BME280;10191;42.710;23.310;2022-08-03T06:16:15;95106.44;;;28.65;32.95
20062;BME280;10191;42.710;23.310;2022-08-03T06:18:40;95113.53;;;28.97;32.88
20062;BME280;10191;42.710;23.310;2022-08-03T06:21:06;95104.19;;;29.46;32.73
20062;BME280;10191;42.710;23.310;2022-08-03T06:23:31;95086.72;;;29.88;32.50
20062;BME280;10191;42.710;23.310;2022-08-03T06:25:57;95105.63;;;30.36;32.40
20062;BME280;10191;42.710;23.310;2022-08-03T06:28:23;95105.06;;;30.43;32.28
20062;BME280;10191;42.710;23.310;2022-08-03T06:30:48;95107.31;;;30.66;32.35
20062;BME280;10191;42.710;23.310;2022-08-03T06:33:14;95100.06;;;31.01;32.22
20062;BME280;10191;42.710;23.310;2022-08-03T06:35:40;95100.63;;;31.40;32.04
20062;BME280;10191;42.710;23.310;2022-08-03T06:38:06;95110.63;;;31.87;31.95
20062;BME280;10191;42.710;23.310;2022-08-03T06:40:34;95105.56;;;32.23;31.82
20062;BME280;10191;42.710;23.310;2022-08-03T06:43:04;95108.25;;;32.64;31.61
20062;BME280;10191;42.710;23.310;2022-08-03T06:45:30;95102.53;;;33.01;31.70
20062;BME280;10191;42.710;23.310;2022-08-03T06:48:13;95096.91;;;33.27;31.36
20062;BME280;10191;42.710;23.310;2022-08-03T06:50:40;95104.34;;;33.54;31.48
20062;BME280;10191;42.710;23.310;2022-08-03T06:53:06;95105.84;;;33.87;31.19
20062;BME280;10191;42.710;23.310;2022-08-03T06:55:33;95098.28;;;34.16;31.30
20062;BME280;10191;42.710;23.310;2022-08-03T06:57:59;95099.75;;;34.35;30.77
20062;BME280;10191;42.710;23.310;2022-08-03T07:00:24;95112.50;;;34.53;31.28
20062;BME280;10191;42.710;23.310;2022-08-03T07:02:50;95103.97;;;34.74;31.22
20062;BME280;10191;42.710;23.310;2022-08-03T07:05:16;95100.72;;;34.90;31.26
20062;BME280;10191;42.710;23.310;2022-08-03T07:07:42;95097.91;;;34.98;30.85
20062;BME280;10191;42.710;23.310;2022-08-03T07:10:08;95099.16;;;35.02;30.97
20062;BME280;10191;42.710;23.310;2022-08-03T07:12:38;95100.81;;;34.98;31.13
20062;BME280;10191;42.710;23.310;2022-08-03T07:15:05;95106.28;;;35.01;31.46
20062;BME280;10191;42.710;23.310;2022-08-03T07:17:34;95107.19;;;35.30;30.92
20062;BME280;10191;42.710;23.310;2022-08-03T07:20:03;95095.78;;;35.58;30.75
20062;BME280;10191;42.710;23.310;2022-08-03T07:22:29;95114.94;;;35.89;30.39
20062;BME280;10191;42.710;23.310;2022-08-03T07:24:54;95113.59;;;35.90;30.24
20062;BME280;10191;42.710;23.310;2022-08-03T07:27:20;95101.16;;;35.41;30.27
20062;BME280;10191;42.710;23.310;2022-08-03T07:29:52;95108.81;;;35.52;30.04
20062;BME280;10191;42.710;23.310;2022-08-03T07:32:27;95108.22;;;35.74;29.87
20062;BME280;10191;42.710;23.310;2022-08-03T07:34:55;95111.41;;;35.83;29.91
20062;BME280;10191;42.710;23.310;2022-08-03T07:37:21;95112.91;;;35.77;30.18
20062;BME280;10191;42.710;23.310;2022-08-03T07:39:47;95111.06;;;35.87;30.11
20062;BME280;10191;42.710;23.310;2022-08-03T07:42:12;95098.00;;;35.93;30.26
20062;BME280;10191;42.710;23.310;2022-08-03T07:44:39;95109.28;;;36.25;29.80
20062;BME280;10191;42.710;23.310;2022-08-03T07:47:05;95101.41;;;36.54;29.65
20062;BME280;10191;42.710;23.310;2022-08-03T07:49:31;95113.03;;;36.90;29.54
20062;BME280;10191;42.710;23.310;2022-08-03T07:51:56;95117.97;;;37.17;29.30
20062;BME280;10191;42.710;23.310;2022-08-03T07:54:40;95114.09;;;37.22;29.13
20062;BME280;10191;42.710;23.310;2022-08-03T07:57:06;95109.75;;;37.36;28.98
20062;BME280;10191;42.710;23.310;2022-08-03T07:59:31;95113.84;;;37.48;28.78
20062;BME280;10191;42.710;23.310;2022-08-03T08:01:59;95113.25;;;37.50;28.89
20062;BME280;10191;42.710;23.310;2022-08-03T08:04:25;95118.84;;;37.48;28.89
20062;BME280;10191;42.710;23.310;2022-08-03T08:06:50;95120.25;;;37.62;28.96
20062;BME280;10191;42.710;23.310;2022-08-03T08:09:16;95114.66;;;37.72;28.60
20062;BME280;10191;42.710;23.310;2022-08-03T08:11:41;95104.06;;;37.82;28.62
20062;BME280;10191;42.710;23.310;2022-08-03T08:14:07;95124.59;;;38.14;28.58
20062;BME280;10191;42.710;23.310;2022-08-03T08:16:33;95131.19;;;38.45;28.63
20062;BME280;10191;42.710;23.310;2022-08-03T08:18:58;95128.28;;;39.77;26.93
20062;BME280;10191;42.710;23.310;2022-08-03T08:21:24;95128.88;;;40.57;26.41
20062;BME280;10191;42.710;23.310;2022-08-03T08:23:49;95123.03;;;40.99;25.73
20062;BME280;10191;42.710;23.310;2022-08-03T08:26:14;95130.72;;;41.21;25.39
20062;BME280;10191;42.710;23.310;2022-08-03T08:28:40;95122.75;;;40.87;25.03
20062;BME280;10191;42.710;23.310;2022-08-03T08:31:05;95125.94;;;40.32;24.96
20062;BME280;10191;42.710;23.310;2022-08-03T08:33:31;95125.81;;;39.98;24.90
20062;BME280;10191;42.710;23.310;2022-08-03T08:35:58;95115.31;;;39.70;25.05
20062;BME280;10191;42.710;23.310;2022-08-03T08:38:24;95124.44;;;39.74;25.12
20062;BME280;10191;42.710;23.310;2022-08-03T08:40:50;95117.28;;;40.00;24.59
20062;BME280;10191;42.710;23.310;2022-08-03T08:43:15;95113.72;;;40.09;24.80
20062;BME280;10191;42.710;23.310;2022-08-03T08:45:40;95116.38;;;40.39;24.91
20062;BME280;10191;42.710;23.310;2022-08-03T08:48:09;95113.63;;;40.66;25.04
20062;BME280;10191;42.710;23.310;2022-08-03T08:50:35;95113.84;;;41.02;24.55
20062;BME280;10191;42.710;23.310;2022-08-03T08:53:02;95106.75;;;41.30;24.51
20062;BME280;10191;42.710;23.310;2022-08-03T08:55:28;95108.59;;;41.52;24.31
20062;BME280;10191;42.710;23.310;2022-08-03T08:57:58;95109.03;;;41.49;24.41
20062;BME280;10191;42.710;23.310;2022-08-03T09:00:25;95111.72;;;41.64;24.27
20062;BME280;10191;42.710;23.310;2022-08-03T09:02:51;95103.56;;;41.79;24.27
20062;BME280;10191;42.710;23.310;2022-08-03T09:05:17;95103.03;;;41.90;24.09
20062;BME280;10191;42.710;23.310;2022-08-03T09:07:43;95104.50;;;42.09;24.17
20062;BME280;10191;42.710;23.310;2022-08-03T09:10:10;95106.88;;;42.29;23.83
20062;BME280;10191;42.710;23.310;2022-08-03T09:12:41;95110.41;;;42.28;23.50
20062;BME280;10191;42.710;23.310;2022-08-03T09:15:23;95100.28;;;42.02;23.82
20062;BME280;10191;42.710;23.310;2022-08-03T09:17:49;95109.47;;;42.16;23.89
20062;BME280;10191;42.710;23.310;2022-08-03T09:20:14;95101.34;;;42.24;23.73
20062;BME280;10191;42.710;23.310;2022-08-03T09:22:54;95101.81;;;42.30;23.30
20062;BME280;10191;42.710;23.310;2022-08-03T09:25:25;95107.31;;;42.16;23.67
20062;BME280;10191;42.710;23.310;2022-08-03T09:27:51;95096.63;;;42.38;23.55
20062;BME280;10191;42.710;23.310;2022-08-03T09:30:16;95105.38;;;42.38;23.35
20062;BME280;10191;42.710;23.310;2022-08-03T09:32:42;95103.72;;;42.44;23.31
20062;BME280;10191;42.710;23.310;2022-08-03T09:35:10;95106.69;;;42.54;23.54
20062;BME280;10191;42.710;23.310;2022-08-03T09:37:36;95097.56;;;42.40;23.21
20062;BME280;10191;42.710;23.310;2022-08-03T09:40:02;95095.91;;;42.47;23.15
20062;BME280;10191;42.710;23.310;2022-08-03T09:42:28;95094.59;;;41.94;23.61
20062;BME280;10191;42.710;23.310;2022-08-03T09:44:53;95101.22;;;42.05;23.48
20062;BME280;10191;42.710;23.310;2022-08-03T09:47:30;95089.56;;;41.17;24.53
20062;BME280;10191;42.710;23.310;2022-08-03T09:50:03;95090.31;;;40.66;25.30
20062;BME280;10191;42.710;23.310;2022-08-03T09:52:37;95087.28;;;40.39;25.42
20062;BME280;10191;42.710;23.310;2022-08-03T09:55:11;95082.53;;;40.02;25.72
20062;BME280;10191;42.710;23.310;2022-08-03T09:57:37;95089.75;;;39.94;25.80
20062;BME280;10191;42.710;23.310;2022-08-03T10:00:13;95073.06;;;39.94;25.59
20062;BME280;10191;42.710;23.310;2022-08-03T10:02:41;95073.44;;;39.73;25.41
20062;BME280;10191;42.710;23.310;2022-08-03T10:05:13;95076.50;;;39.43;25.18
20062;BME280;10191;42.710;23.310;2022-08-03T10:07:47;95071.53;;;39.68;25.29
20062;BME280;10191;42.710;23.310;2022-08-03T10:10:15;95073.66;;;39.36;24.87
20062;BME280;10191;42.710;23.310;2022-08-03T10:12:41;95066.47;;;38.89;24.87
20062;BME280;10191;42.710;23.310;2022-08-03T10:15:08;95069.50;;;38.37;25.19
20062;BME280;10191;42.710;23.310;2022-08-03T10:17:34;95058.88;;;39.01;23.85
20062;BME280;10191;42.710;23.310;2022-08-03T10:20:00;95065.75;;;40.18;23.50
20062;BME280;10191;42.710;23.310;2022-08-03T10:22:26;95068.75;;;41.20;22.91
20062;BME280;10191;42.710;23.310;2022-08-03T10:24:55;95074.50;;;41.72;22.51
20062;BME280;10191;42.710;23.310;2022-08-03T10:27:23;95074.50;;;42.44;22.13
20062;BME280;10191;42.710;23.310;2022-08-03T10:29:50;95069.81;;;42.58;22.08
20062;BME280;10191;42.710;23.310;2022-08-03T10:35:06;95055.91;;;41.23;22.61
20062;BME280;10191;42.710;23.310;2022-08-03T10:37:39;95059.28;;;40.02;23.63
20062;BME280;10191;42.710;23.310;2022-08-03T10:40:13;95053.31;;;39.28;24.31
20062;BME280;10191;42.710;23.310;2022-08-03T10:42:41;95058.13;;;38.93;24.62
20062;BME280;10191;42.710;23.310;2022-08-03T10:45:14;95058.19;;;38.63;24.52
20062;BME280;10191;42.710;23.310;2022-08-03T10:47:42;95060.00;;;38.36;25.12
20062;BME280;10191;42.710;23.310;2022-08-03T10:50:11;95061.34;;;38.12;25.05
20062;BME280;10191;42.710;23.310;2022-08-03T10:53:00;95047.25;;;38.32;24.79
20062;BME280;10191;42.710;23.310;2022-08-03T10:55:39;95051.28;;;39.06;24.69
20062;BME280;10191;42.710;23.310;2022-08-03T10:58:53;95054.25;;;39.70;23.45
20062;BME280;10191;42.710;23.310;2022-08-03T11:01:48;95051.78;;;40.41;22.85
20062;BME280;10191;42.710;23.310;2022-08-03T11:06:30;95037.84;;;40.32;22.67
20062;BME280;10191;42.710;23.310;2022-08-03T11:09:16;95041.84;;;38.98;23.66
20062;BME280;10191;42.710;23.310;2022-08-03T11:11:45;95045.38;;;38.81;24.31
20062;BME280;10191;42.710;23.310;2022-08-03T11:14:16;95035.75;;;38.56;24.46
20062;BME280;10191;42.710;23.310;2022-08-03T11:16:45;95031.88;;;38.76;24.49
20062;BME280;10191;42.710;23.310;2022-08-03T11:19:14;95032.13;;;39.03;24.20
20062;BME280;10191;42.710;23.310;2022-08-03T11:35:17;95023.72;;;42.11;21.74
20062;BME280;10191;42.710;23.310;2022-08-03T11:42:59;95016.00;;;42.61;21.47
20062;BME280;10191;42.710;23.310;2022-08-03T11:45:25;95017.34;;;42.41;21.49
20062;BME280;10191;42.710;23.310;2022-08-03T11:47:53;95019.06;;;42.54;21.27
20062;BME280;10191;42.710;23.310;2022-08-03T11:50:19;95023.50;;;42.55;21.07
20062;BME280;10191;42.710;23.310;2022-08-03T11:52:45;95015.53;;;42.46;21.06
20062;BME280;10191;42.710;23.310;2022-08-03T11:55:11;95010.81;;;42.14;21.27
20062;BME280;10191;42.710;23.310;2022-08-03T11:57:37;95015.34;;;41.98;21.35
20062;BME280;10191;42.710;23.310;2022-08-03T12:00:18;95011.06;;;41.99;21.47
20062;BME280;10191;42.710;23.310;2022-08-03T12:02:52;95021.09;;;42.06;21.33
20062;BME280;10191;42.710;23.310;2022-08-03T12:05:18;95014.00;;;41.72;21.28
20062;BME280;10191;42.710;23.310;2022-08-03T12:07:44;95011.00;;;41.09;21.40
20062;BME280;10191;42.710;23.310;2022-08-03T12:10:11;95010.78;;;40.46;21.71
20062;BME280;10191;42.710;23.310;2022-08-03T12:12:37;95005.72;;;39.81;22.06
20062;BME280;10191;42.710;23.310;2022-08-03T12:15:04;95000.97;;;38.41;23.20
20062;BME280;10191;42.710;23.310;2022-08-03T12:17:37;95001.41;;;37.54;23.81
20062;BME280;10191;42.710;23.310;2022-08-03T12:20:04;94977.03;;;37.20;24.38
20062;BME280;10191;42.710;23.310;2022-08-03T12:22:35;94988.78;;;37.14;24.34
20062;BME280;10191;42.710;23.310;2022-08-03T12:25:07;94986.06;;;37.09;24.36
20062;BME280;10191;42.710;23.310;2022-08-03T12:27:34;94989.41;;;37.35;24.19
20062;BME280;10191;42.710;23.310;2022-08-03T12:30:00;94987.47;;;38.21;24.20
20062;BME280;10191;42.710;23.310;2022-08-03T12:32:27;94977.94;;;39.30;23.48
20062;BME280;10191;42.710;23.310;2022-08-03T12:34:54;94980.47;;;40.08;23.11
20062;BME280;10191;42.710;23.310;2022-08-03T12:37:23;94968.56;;;40.13;22.86
20062;BME280;10191;42.710;23.310;2022-08-03T12:39:53;94986.06;;;40.99;22.17
20062;BME280;10191;42.710;23.310;2022-08-03T12:42:19;94986.16;;;41.98;21.23
20062;BME280;10191;42.710;23.310;2022-08-03T12:44:45;94977.72;;;42.67;20.82
20062;BME280;10191;42.710;23.310;2022-08-03T12:47:13;94982.78;;;43.14;20.28
20062;BME280;10191;42.710;23.310;2022-08-03T12:49:46;94986.25;;;44.32;19.80
20062;BME280;10191;42.710;23.310;2022-08-03T12:52:12;94982.44;;;45.58;18.97
20062;BME280;10191;42.710;23.310;2022-08-03T12:54:37;94983.22;;;45.82;19.06
20062;BME280;10191;42.710;23.310;2022-08-03T12:57:07;94978.44;;;44.67;19.32
20062;BME280;10191;42.710;23.310;2022-08-03T12:59:54;94970.75;;;42.24;20.93
20062;BME280;10191;42.710;23.310;2022-08-03T13:02:34;94960.50;;;41.96;21.15
20062;BME280;10191;42.710;23.310;2022-08-03T13:05:09;94953.13;;;43.68;20.37
20062;BME280;10191;42.710;23.310;2022-08-03T13:07:44;94977.66;;;46.32;18.71
20062;BME280;10191;42.710;23.310;2022-08-03T13:10:11;94980.03;;;46.59;18.79
20062;BME280;10191;42.710;23.310;2022-08-03T13:12:47;94975.25;;;45.94;19.47
20062;BME280;10191;42.710;23.310;2022-08-03T13:15:13;94977.66;;;45.09;19.88
20062;BME280;10191;42.710;23.310;2022-08-03T13:17:39;94966.22;;;44.07;20.04
20062;BME280;10191;42.710;23.310;2022-08-03T13:20:05;94965.66;;;43.20;20.21
20062;BME280;10191;42.710;23.310;2022-08-03T13:22:31;94968.78;;;42.55;20.53
20062;BME280;10191;42.710;23.310;2022-08-03T13:25:01;94951.56;;;41.22;21.52
20062;BME280;10191;42.710;23.310;2022-08-03T13:27:28;94958.66;;;40.16;22.09
20062;BME280;10191;42.710;23.310;2022-08-03T13:29:54;94958.88;;;39.44;22.66
20062;BME280;10191;42.710;23.310;2022-08-03T13:32:21;94958.34;;;38.66;23.12
20062;BME280;10191;42.710;23.310;2022-08-03T13:34:47;94952.47;;;38.11;23.43